sensor_id;sensor_type;location;lat;lon;timestamp;pressure;altitude;pressure_sealevel;temperature;humidity
55070;BME280;40967;52.070;8.596;2023-01-19T00:00:13;98996.47;;;0.39;94.45
55070;BME280;40967;52.070;8.596;2023-01-19T00:02:39;98972.06;;;0.30;94.36
55070;BME280;40967;52.070;8.596;2023-01-19T00:05:04;98982.56;;;0.37;94.13
55070;BME280;40967;52.070;8.596;2023-01-19T00:07:30;98978.88;;;0.38;94.70
55070;BME280;40967;52.070;8.596;2023-01-19T00:09:56;98984.13;;;0.33;94.66
55070;BME280;40967;52.070;8.596;2023-01-19T00:12:21;98979.09;;;0.36;94.58
55070;BME280;40967;52.070;8.596;2023-01-19T00:14:47;98973.69;;;0.31;95.13
55070;BME280;40967;52.070;8.596;2023-01-19T00:17:12;98978.78;;;0.33;95.12
55070;BME280;40967;52.070;8.596;2023-01-19T00:19:37;98975.28;;;0.32;94.99
55070;BME280;40967;52.070;8.596;2023-01-19T00:22:03;98981.19;;;0.34;95.20
55070;BME280;40967;52.070;8.596;2023-01-19T00:24:30;98968.34;;;0.31;95.20
55070;BME280;40967;52.070;8.596;2023-01-19T00:26:56;98975.06;;;0.34;95.82
55070;BME280;40967;52.070;8.596;2023-01-19T00:29:21;98932.84;;;0.14;96.28
55070;BME280;40967;52.070;8.596;2023-01-19T00:31:48;98972.38;;;0.34;96.04
55070;BME280;40967;52.070;8.596;2023-01-19T00:34:13;98985.47;;;0.35;95.87
55070;BME280;40967;52.070;8.596;2023-01-19T00:36:39;98961.88;;;0.27;95.75
55070;BME280;40967;52.070;8.596;2023-01-19T00:39:04;98980.97;;;0.36;96.38
55070;BME280;40967;52.070;8.596;2023-01-19T00:41:29;98959.47;;;0.26;96.47
55070;BME280;40967;52.070;8.596;2023-01-19T00:44:13;98985.22;;;0.37;95.92
55070;BME280;40967;52.070;8.596;2023-01-19T00:46:39;98971.34;;;0.35;96.67
55070;BME280;40967;52.070;8.596;2023-01-19T00:49:04;98974.72;;;0.30;96.91
55070;BME280;40967;52.070;8.596;2023-01-19T00:51:30;98978.03;;;0.37;96.53
55070;BME280;40967;52.070;8.596;2023-01-19T00:53:56;98979.34;;;0.35;96.86
55070;BME280;40967;52.070;8.596;2023-01-19T00:56:24;98973.69;;;0.31;96.46
55070;BME280;40967;52.070;8.596;2023-01-19T00:58:49;98975.13;;;0.39;96.38
55070;BME280;40967;52.070;8.596;2023-01-19T01:01:15;98959.78;;;0.29;96.73
55070;BME280;40967;52.070;8.596;2023-01-19T01:03:40;98961.72;;;0.34;97.04
55070;BME280;40967;52.070;8.596;2023-01-19T01:06:05;98959.63;;;0.36;97.54
55070;BME280;40967;52.070;8.596;2023-01-19T01:08:33;98941.97;;;0.18;97.26
55070;BME280;40967;52.070;8.596;2023-01-19T01:10:58;98967.88;;;0.34;97.81
55070;BME280;40967;52.070;8.596;2023-01-19T01:13:24;98967.88;;;0.34;97.83
55070;BME280;40967;52.070;8.596;2023-01-19T01:15:50;98982.03;;;0.35;97.75
55070;BME280;40967;52.070;8.596;2023-01-19T01:18:16;98991.63;;;0.36;97.90
55070;BME280;40967;52.070;8.596;2023-01-19T01:20:42;98994.63;;;0.39;98.25
55070;BME280;40967;52.070;8.596;2023-01-19T01:23:07;98994.88;;;0.38;97.84
55070;BME280;40967;52.070;8.596;2023-01-19T01:25:32;98983.38;;;0.37;98.14
55070;BME280;40967;52.070;8.596;2023-01-19T01:28:02;98985.00;;;0.38;98.23
55070;BME280;40967;52.070;8.596;2023-01-19T01:30:29;98993.22;;;0.37;98.23
55070;BME280;40967;52.070;8.596;2023-01-19T01:32:54;98994.88;;;0.38;98.03
55070;BME280;40967;52.070;8.596;2023-01-19T01:35:20;99005.88;;;0.41;98.28
55070;BME280;40967;52.070;8.596;2023-01-19T01:37:45;99002.38;;;0.41;98.18
55070;BME280;40967;52.070;8.596;2023-01-19T01:40:16;99007.72;;;0.41;97.87
55070;BME280;40967;52.070;8.596;2023-01-19T01:42:42;99011.91;;;0.37;98.31
55070;BME280;40967;52.070;8.596;2023-01-19T01:45:38;99008.88;;;0.45;98.07
55070;BME280;40967;52.070;8.596;2023-01-19T01:48:23;99007.56;;;0.47;98.70
55070;BME280;40967;52.070;8.596;2023-01-19T01:51:08;98999.56;;;0.47;98.33
55070;BME280;40967;52.070;8.596;2023-01-19T01:54:20;98988.88;;;0.47;97.98
55070;BME280;40967;52.070;8.596;2023-01-19T01:56:52;98994.09;;;0.54;98.51
55070;BME280;40967;52.070;8.596;2023-01-19T01:59:21;98998.09;;;0.56;98.75
55070;BME280;40967;52.070;8.596;2023-01-19T02:01:56;99004.59;;;0.60;98.19
55070;BME280;40967;52.070;8.596;2023-01-19T02:04:44;99000.06;;;0.61;98.57
55070;BME280;40967;52.070;8.596;2023-01-19T02:07:13;98990.25;;;0.66;98.41
55070;BME280;40967;52.070;8.596;2023-01-19T02:10:00;98995.34;;;0.68;98.54
55070;BME280;40967;52.070;8.596;2023-01-19T02:12:44;99002.09;;;0.70;98.87
55070;BME280;40967;52.070;8.596;2023-01-19T02:15:28;98983.66;;;0.69;98.93
55070;BME280;40967;52.070;8.596;2023-01-19T02:17:53;98987.34;;;0.68;98.43
55070;BME280;40967;52.070;8.596;2023-01-19T02:20:20;98999.50;;;0.75;98.32
55070;BME280;40967;52.070;8.596;2023-01-19T02:22:49;98992.06;;;0.77;98.98
55070;BME280;40967;52.070;8.596;2023-01-19T02:25:17;99000.63;;;0.79;98.78
55070;BME280;40967;52.070;8.596;2023-01-19T02:27:43;98974.00;;;0.68;98.53
55070;BME280;40967;52.070;8.596;2023-01-19T02:30:09;98984.94;;;0.83;98.82
55070;BME280;40967;52.070;8.596;2023-01-19T02:32:35;98971.44;;;0.73;99.23
55070;BME280;40967;52.070;8.596;2023-01-19T02:35:01;98983.22;;;0.77;98.85
55070;BME280;40967;52.070;8.596;2023-01-19T02:37:28;98987.44;;;0.89;99.29
55070;BME280;40967;52.070;8.596;2023-01-19T02:39:59;98996.34;;;0.95;99.32
55070;BME280;40967;52.070;8.596;2023-01-19T02:42:29;98979.19;;;0.91;98.52
55070;BME280;40967;52.070;8.596;2023-01-19T02:44:56;98990.75;;;0.96;98.53
55070;BME280;40967;52.070;8.596;2023-01-19T02:47:22;98986.47;;;0.95;98.58
55070;BME280;40967;52.070;8.596;2023-01-19T02:49:58;98981.66;;;0.97;98.47
55070;BME280;40967;52.070;8.596;2023-01-19T02:52:24;98972.22;;;0.90;98.97
55070;BME280;40967;52.070;8.596;2023-01-19T03:00:41;98974.78;;;1.01;98.63
55070;BME280;40967;52.070;8.596;2023-01-19T03:03:29;98963.97;;;0.91;98.57
55070;BME280;40967;52.070;8.596;2023-01-19T03:08:56;98987.09;;;1.02;98.66
55070;BME280;40967;52.070;8.596;2023-01-19T03:11:29;98987.09;;;1.02;99.04
55070;BME280;40967;52.070;8.596;2023-01-19T03:14:00;98982.56;;;1.03;98.45
55070;BME280;40967;52.070;8.596;2023-01-19T03:16:42;98987.91;;;1.03;99.24
55070;BME280;40967;52.070;8.596;2023-01-19T03:21:38;98970.28;;;1.02;98.62
55070;BME280;40967;52.070;8.596;2023-01-19T03:24:07;98973.56;;;1.09;98.83
55070;BME280;40967;52.070;8.596;2023-01-19T03:26:38;98974.13;;;1.11;98.50
55070;BME280;40967;52.070;8.596;2023-01-19T03:29:06;98981.09;;;1.12;98.81
55070;BME280;40967;52.070;8.596;2023-01-19T03:31:35;98969.78;;;1.05;98.38
55070;BME280;40967;52.070;8.596;2023-01-19T03:34:08;98981.09;;;1.12;98.95
55070;BME280;40967;52.070;8.596;2023-01-19T03:39:06;98975.44;;;1.08;98.40
55070;BME280;40967;52.070;8.596;2023-01-19T03:41:34;98983.00;;;1.16;99.03
55070;BME280;40967;52.070;8.596;2023-01-19T03:44:02;98977.34;;;1.13;99.10
55070;BME280;40967;52.070;8.596;2023-01-19T03:46:29;98986.56;;;1.22;98.62
55070;BME280;40967;52.070;8.596;2023-01-19T03:48:56;98989.81;;;1.24;98.71
55070;BME280;40967;52.070;8.596;2023-01-19T03:51:21;98986.31;;;1.24;99.03
55070;BME280;40967;52.070;8.596;2023-01-19T03:53:47;98991.97;;;1.27;98.30
55070;BME280;40967;52.070;8.596;2023-01-19T03:56:19;98974.53;;;1.20;98.58
55070;BME280;40967;52.070;8.596;2023-01-19T03:58:46;98975.72;;;1.29;98.75
55070;BME280;40967;52.070;8.596;2023-01-19T04:01:12;98979.19;;;1.29;99.03
55070;BME280;40967;52.070;8.596;2023-01-19T04:03:39;98977.31;;;1.30;98.34
55070;BME280;40967;52.070;8.596;2023-01-19T04:06:05;98975.22;;;1.32;98.31
55070;BME280;40967;52.070;8.596;2023-01-19T04:08:31;98979.50;;;1.33;97.83
55070;BME280;40967;52.070;8.596;2023-01-19T04:10:57;98961.22;;;1.25;97.84
55070;BME280;40967;52.070;8.596;2023-01-19T04:13:22;98964.22;;;1.28;98.36
55070;BME280;40967;52.070;8.596;2023-01-19T04:15:48;98969.88;;;1.32;98.28
55070;BME280;40967;52.070;8.596;2023-01-19T04:18:13;98956.22;;;1.28;98.52
55070;BME280;40967;52.070;8.596;2023-01-19T04:20:39;98965.31;;;1.32;98.56
55070;BME280;40967;52.070;8.596;2023-01-19T04:23:04;98968.56;;;1.34;98.62
55070;BME280;40967;52.070;8.596;2023-01-19T04:25:29;98965.88;;;1.34;98.01
55070;BME280;40967;52.070;8.596;2023-01-19T04:27:55;98955.13;;;1.29;97.78
55070;BME280;40967;52.070;8.596;2023-01-19T04:30:22;98940.75;;;1.30;97.78
55070;BME280;40967;52.070;8.596;2023-01-19T04:32:48;98952.38;;;1.41;97.99
55070;BME280;40967;52.070;8.596;2023-01-19T04:35:13;98945.06;;;1.36;98.09
55070;BME280;40967;52.070;8.596;2023-01-19T04:37:39;98943.47;;;1.35;97.61
55070;BME280;40967;52.070;8.596;2023-01-19T04:40:05;98957.72;;;1.41;97.86
55070;BME280;40967;52.070;8.596;2023-01-19T04:42:30;98937.88;;;1.37;97.92
55070;BME280;40967;52.070;8.596;2023-01-19T04:44:56;98944.56;;;1.39;98.09
55070;BME280;40967;52.070;8.596;2023-01-19T04:47:22;98955.56;;;1.43;98.13
55070;BME280;40967;52.070;8.596;2023-01-19T04:49:47;98948.88;;;1.40;97.50
55070;BME280;40967;52.070;8.596;2023-01-19T04:52:12;98958.56;;;1.46;96.99
55070;BME280;40967;52.070;8.596;2023-01-19T04:54:38;98960.91;;;1.43;97.39
55070;BME280;40967;52.070;8.596;2023-01-19T04:57:03;98964.72;;;1.47;97.60
55070;BME280;40967;52.070;8.596;2023-01-19T04:59:28;98963.44;;;1.49;97.29
55070;BME280;40967;52.070;8.596;2023-01-19T05:01:54;98970.94;;;1.52;97.06
55070;BME280;40967;52.070;8.596;2023-01-19T05:04:21;98965.59;;;1.52;97.03
55070;BME280;40967;52.070;8.596;2023-01-19T05:06:46;98945.91;;;1.37;97.01
55070;BME280;40967;52.070;8.596;2023-01-19T05:09:12;98974.44;;;1.53;97.20
55070;BME280;40967;52.070;8.596;2023-01-19T05:11:39;98968.84;;;1.54;97.41
55070;BME280;40967;52.070;8.596;2023-01-19T05:14:05;98969.94;;;1.58;96.49
55070;BME280;40967;52.070;8.596;2023-01-19T05:16:31;98974.50;;;1.58;96.30
55070;BME280;40967;52.070;8.596;2023-01-19T05:18:56;98983.84;;;1.60;97.07
55070;BME280;40967;52.070;8.596;2023-01-19T05:21:22;98963.50;;;1.54;96.09
55070;BME280;40967;52.070;8.596;2023-01-19T05:23:47;98968.88;;;1.59;96.64
55070;BME280;40967;52.070;8.596;2023-01-19T05:26:13;98959.75;;;1.55;96.06
55070;BME280;40967;52.070;8.596;2023-01-19T05:28:38;98964.59;;;1.58;96.40
55070;BME280;40967;52.070;8.596;2023-01-19T05:31:04;98960.38;;;1.62;96.59
55070;BME280;40967;52.070;8.596;2023-01-19T05:33:29;98949.63;;;1.57;95.88
55070;BME280;40967;52.070;8.596;2023-01-19T05:35:55;98952.91;;;1.64;96.05
55070;BME280;40967;52.070;8.596;2023-01-19T05:38:21;98949.16;;;1.65;96.01
55070;BME280;40967;52.070;8.596;2023-01-19T05:40:46;98940.53;;;1.58;95.89
55070;BME280;40967;52.070;8.596;2023-01-19T05:43:14;98951.84;;;1.65;96.15
55070;BME280;40967;52.070;8.596;2023-01-19T05:45:39;98946.50;;;1.65;95.28
55070;BME280;40967;52.070;8.596;2023-01-19T05:48:08;98942.22;;;1.64;95.33
55070;BME280;40967;52.070;8.596;2023-01-19T05:50:34;98938.00;;;1.68;95.81
55070;BME280;40967;52.070;8.596;2023-01-19T05:53:00;98938.47;;;1.65;95.79
55070;BME280;40967;52.070;8.596;2023-01-19T05:55:26;98957.81;;;1.72;95.61
55070;BME280;40967;52.070;8.596;2023-01-19T05:57:51;98958.63;;;1.73;95.61
55070;BME280;40967;52.070;8.596;2023-01-19T06:00:17;98943.28;;;1.63;95.47
55070;BME280;40967;52.070;8.596;2023-01-19T06:02:43;98953.28;;;1.73;95.19
55070;BME280;40967;52.070;8.596;2023-01-19T06:05:08;98957.00;;;1.72;95.66
55070;BME280;40967;52.070;8.596;2023-01-19T06:07:33;98945.50;;;1.71;95.88
55070;BME280;40967;52.070;8.596;2023-01-19T06:09:59;98950.28;;;1.69;96.41
55070;BME280;40967;52.070;8.596;2023-01-19T06:12:24;98942.72;;;1.61;96.35
55070;BME280;40967;52.070;8.596;2023-01-19T06:14:50;98949.66;;;1.62;96.66
55070;BME280;40967;52.070;8.596;2023-01-19T06:17:15;98963.66;;;1.69;97.68
55070;BME280;40967;52.070;8.596;2023-01-19T06:19:41;98944.84;;;1.59;97.96
55070;BME280;40967;52.070;8.596;2023-01-19T06:22:07;98969.72;;;1.60;98.85
55070;BME280;40967;52.070;8.596;2023-01-19T06:24:32;98968.56;;;1.56;99.37
55070;BME280;40967;52.070;8.596;2023-01-19T06:26:58;98959.13;;;1.48;99.75
55070;BME280;40967;52.070;8.596;2023-01-19T06:29:24;98962.03;;;1.47;100.00
55070;BME280;40967;52.070;8.596;2023-01-19T06:31:50;98968.47;;;1.46;100.00
55070;BME280;40967;52.070;8.596;2023-01-19T06:34:15;98982.13;;;1.49;100.00
55070;BME280;40967;52.070;8.596;2023-01-19T06:36:41;98963.38;;;1.44;100.00
55070;BME280;40967;52.070;8.596;2023-01-19T06:39:08;98982.06;;;1.44;100.00
55070;BME280;40967;52.070;8.596;2023-01-19T06:41:34;98984.50;;;1.46;100.00
55070;BME280;40967;52.070;8.596;2023-01-19T06:44:00;98988.78;;;1.47;100.00
55070;BME280;40967;52.070;8.596;2023-01-19T06:46:26;98992.81;;;1.49;100.00
55070;BME280;40967;52.070;8.596;2023-01-19T06:48:52;98986.66;;;1.49;100.00
55070;BME280;40967;52.070;8.596;2023-01-19T06:51:17;98984.19;;;1.42;100.00
55070;BME280;40967;52.070;8.596;2023-01-19T06:53:43;98983.88;;;1.39;100.00
55070;BME280;40967;52.070;8.596;2023-01-19T06:56:08;98998.84;;;1.40;100.00
55070;BME280;40967;52.070;8.596;2023-01-19T06:58:34;98988.00;;;1.30;100.00
55070;BME280;40967;52.070;8.596;2023-01-19T07:01:08;98997.69;;;1.36;100.00
55070;BME280;40967;52.070;8.596;2023-01-19T07:03:35;98992.84;;;1.33;100.00
55070;BME280;40967;52.070;8.596;2023-01-19T07:06:02;98995.47;;;1.28;100.00
55070;BME280;40967;52.070;8.596;2023-01-19T07:08:30;99012.88;;;1.30;100.00
55070;BME280;40967;52.070;8.596;2023-01-19T07:13:26;99003.47;;;1.28;100.00
55070;BME280;40967;52.070;8.596;2023-01-19T07:15:52;99015.47;;;1.25;100.00
55070;BME280;40967;52.070;8.596;2023-01-19T07:18:18;99008.69;;;1.17;100.00
55070;BME280;40967;52.070;8.596;2023-01-19T07:20:43;99012.38;;;1.16;100.00
55070;BME280;40967;52.070;8.596;2023-01-19T07:23:10;99017.91;;;1.10;100.00
55070;BME280;40967;52.070;8.596;2023-01-19T07:25:36;99028.66;;;1.15;100.00
55070;BME280;40967;52.070;8.596;2023-01-19T07:28:02;99019.69;;;1.04;100.00
55070;BME280;40967;52.070;8.596;2023-01-19T07:30:27;99034.50;;;1.12;100.00
55070;BME280;40967;52.070;8.596;2023-01-19T07:32:56;99033.28;;;1.03;100.00
55070;BME280;40967;52.070;8.596;2023-01-19T07:35:23;99047.28;;;1.10;100.00
55070;BME280;40967;52.070;8.596;2023-01-19T07:37:49;99043.50;;;1.06;100.00
55070;BME280;40967;52.070;8.596;2023-01-19T07:40:14;99039.69;;;1.02;100.00
55070;BME280;40967;52.070;8.596;2023-01-19T07:42:48;99047.97;;;1.00;100.00
55070;BME280;40967;52.070;8.596;2023-01-19T07:45:15;99057.31;;;1.03;100.00
55070;BME280;40967;52.070;8.596;2023-01-19T07:47:44;99049.31;;;1.03;100.00
55070;BME280;40967;52.070;8.596;2023-01-19T07:50:11;99054.00;;;0.96;100.00
55070;BME280;40967;52.070;8.596;2023-01-19T07:52:36;99061.78;;;0.97;100.00
55070;BME280;40967;52.070;8.596;2023-01-19T07:55:04;99053.22;;;0.95;100.00
55070;BME280;40967;52.070;8.596;2023-01-19T07:57:30;99045.84;;;0.86;100.00
55070;BME280;40967;52.070;8.596;2023-01-19T07:59:55;99070.69;;;1.03;100.00
55070;BME280;40967;52.070;8.596;2023-01-19T08:02:21;99074.66;;;1.00;100.00
55070;BME280;40967;52.070;8.596;2023-01-19T08:04:47;99055.94;;;0.84;100.00
55070;BME280;40967;52.070;8.596;2023-01-19T08:07:12;99074.59;;;0.95;100.00
55070;BME280;40967;52.070;8.596;2023-01-19T08:09:38;99081.78;;;0.95;100.00
55070;BME280;40967;52.070;8.596;2023-01-19T08:12:03;99077.25;;;0.95;100.00
55070;BME280;40967;52.070;8.596;2023-01-19T08:14:29;99087.19;;;1.00;100.00
55070;BME280;40967;52.070;8.596;2023-01-19T08:16:58;99086.53;;;0.93;100.00
55070;BME280;40967;52.070;8.596;2023-01-19T08:19:23;99100.53;;;1.00;100.00
55070;BME280;40967;52.070;8.596;2023-01-19T08:21:49;99082.47;;;0.90;100.00
55070;BME280;40967;52.070;8.596;2023-01-19T08:24:18;99103.22;;;1.00;100.00
55070;BME280;40967;52.070;8.596;2023-01-19T08:26:43;99104.75;;;0.96;100.00
55070;BME280;40967;52.070;8.596;2023-01-19T08:29:08;99101.38;;;1.00;100.00
55070;BME280;40967;52.070;8.596;2023-01-19T08:31:34;99103.22;;;1.00;100.00
55070;BME280;40967;52.070;8.596;2023-01-19T08:34:00;99104.75;;;0.96;100.00
55070;BME280;40967;52.070;8.596;2023-01-19T08:36:25;99114.16;;;0.98;100.00
55070;BME280;40967;52.070;8.596;2023-01-19T08:38:50;99108.47;;;0.95;100.00
55070;BME280;40967;52.070;8.596;2023-01-19T08:41:16;99122.06;;;0.93;100.00
55070;BME280;40967;52.070;8.596;2023-01-19T08:43:42;99124.59;;;1.00;100.00
55070;BME280;40967;52.070;8.596;2023-01-19T08:46:09;99127.25;;;1.00;100.00
55070;BME280;40967;52.070;8.596;2023-01-19T08:48:34;99111.06;;;0.90;100.00
55070;BME280;40967;52.070;8.596;2023-01-19T08:51:00;99126.94;;;0.96;100.00
55070;BME280;40967;52.070;8.596;2023-01-19T08:53:26;99129.34;;;0.98;100.00
55070;BME280;40967;52.070;8.596;2023-01-19T08:55:55;99112.00;;;0.84;100.00
55070;BME280;40967;52.070;8.596;2023-01-19T08:58:22;99149.75;;;1.04;100.00
55070;BME280;40967;52.070;8.596;2023-01-19T09:00:47;99149.75;;;1.04;100.00
55070;BME280;40967;52.070;8.596;2023-01-19T09:03:13;99150.34;;;1.06;100.00
55070;BME280;40967;52.070;8.596;2023-01-19T09:05:39;99142.22;;;1.01;100.00
55070;BME280;40967;52.070;8.596;2023-01-19T09:08:10;99158.66;;;1.09;100.00
55070;BME280;40967;52.070;8.596;2023-01-19T09:10:36;99157.03;;;1.08;100.00
55070;BME280;40967;52.070;8.596;2023-01-19T09:13:03;99157.28;;;1.07;100.00
55070;BME280;40967;52.070;8.596;2023-01-19T09:15:32;99153.38;;;0.98;100.00
55070;BME280;40967;52.070;8.596;2023-01-19T09:18:03;99176.94;;;1.01;100.00
55070;BME280;40967;52.070;8.596;2023-01-19T09:20:29;99169.97;;;1.00;100.00
55070;BME280;40967;52.070;8.596;2023-01-19T09:22:58;99185.75;;;1.01;100.00
55070;BME280;40967;52.070;8.596;2023-01-19T09:25:23;99189.25;;;1.02;100.00
55070;BME280;40967;52.070;8.596;2023-01-19T09:27:49;99187.41;;;1.02;100.00
55070;BME280;40967;52.070;8.596;2023-01-19T09:30:17;99182.75;;;0.98;100.00
55070;BME280;40967;52.070;8.596;2023-01-19T09:32:43;99196.78;;;1.05;100.00
55070;BME280;40967;52.070;8.596;2023-01-19T09:35:09;99190.53;;;0.99;100.00
55070;BME280;40967;52.070;8.596;2023-01-19T09:37:34;99196.53;;;1.06;100.00
55070;BME280;40967;52.070;8.596;2023-01-19T09:40:00;99176.38;;;0.99;100.00
55070;BME280;40967;52.070;8.596;2023-01-19T09:42:52;99196.53;;;1.06;100.00
55070;BME280;40967;52.070;8.596;2023-01-19T09:45:34;99208.94;;;1.12;100.00
55070;BME280;40967;52.070;8.596;2023-01-19T09:48:04;99197.69;;;1.10;100.00
55070;BME280;40967;52.070;8.596;2023-01-19T09:50:34;99201.97;;;1.11;100.00
55070;BME280;40967;52.070;8.596;2023-01-19T09:53:08;99214.19;;;1.07;100.00
55070;BME280;40967;52.070;8.596;2023-01-19T09:55:39;99217.19;;;1.11;100.00
55070;BME280;40967;52.070;8.596;2023-01-19T09:58:12;99227.88;;;1.11;100.00
55070;BME280;40967;52.070;8.596;2023-01-19T10:00:38;99218.56;;;1.13;100.00
55070;BME280;40967;52.070;8.596;2023-01-19T10:03:13;99229.25;;;1.13;100.00
55070;BME280;40967;52.070;8.596;2023-01-19T10:05:48;99214.19;;;1.07;100.00
55070;BME280;40967;52.070;8.596;2023-01-19T10:08:29;99219.53;;;1.07;100.00
55070;BME280;40967;52.070;8.596;2023-01-19T10:11:04;99235.16;;;1.15;100.00
55070;BME280;40967;52.070;8.596;2023-01-19T10:13:48;99228.22;;;1.14;100.00
55070;BME280;40967;52.070;8.596;2023-01-19T10:16:31;99235.81;;;1.23;100.00
55070;BME280;40967;52.070;8.596;2023-01-19T10:19:16;99243.50;;;1.19;100.00
55070;BME280;40967;52.070;8.596;2023-01-19T10:21:45;99244.94;;;1.10;100.00
55070;BME280;40967;52.070;8.596;2023-01-19T10:24:39;99256.09;;;1.07;100.00
55070;BME280;40967;52.070;8.596;2023-01-19T10:27:15;99240.00;;;1.02;100.00
55070;BME280;40967;52.070;8.596;2023-01-19T10:29:43;99249.38;;;1.04;100.00
55070;BME280;40967;52.070;8.596;2023-01-19T10:34:41;99248.00;;;1.02;100.00
55070;BME280;40967;52.070;8.596;2023-01-19T10:39:46;99246.78;;;1.09;100.00
55070;BME280;40967;52.070;8.596;2023-01-19T10:42:16;99260.16;;;1.09;100.00
55070;BME280;40967;52.070;8.596;2023-01-19T10:44:42;99269.47;;;1.07;100.00
55070;BME280;40967;52.070;8.596;2023-01-19T10:47:18;99267.84;;;1.06;100.00
55070;BME280;40967;52.070;8.596;2023-01-19T10:49:45;99270.81;;;1.09;100.00
55070;BME280;40967;52.070;8.596;2023-01-19T10:54:45;99273.84;;;1.13;100.00
55070;BME280;40967;52.070;8.596;2023-01-19T10:57:24;99272.81;;;1.14;100.00
55070;BME280;40967;52.070;8.596;2023-01-19T10:59:50;99274.66;;;1.13;100.00
55070;BME280;40967;52.070;8.596;2023-01-19T11:02:25;99280.56;;;1.15;100.00
55070;BME280;40967;52.070;8.596;2023-01-19T11:04:54;99280.81;;;1.14;100.00
55070;BME280;40967;52.070;8.596;2023-01-19T11:12:39;99297.88;;;1.13;100.00
55070;BME280;40967;52.070;8.596;2023-01-19T11:15:23;99275.63;;;1.07;100.00
55070;BME280;40967;52.070;8.596;2023-01-19T11:17:50;99281.63;;;1.14;100.00
55070;BME280;40967;52.070;8.596;2023-01-19T11:20:26;99287.66;;;1.22;100.00
55070;BME280;40967;52.070;8.596;2023-01-19T11:23:04;99287.72;;;1.27;100.00
55070;BME280;40967;52.070;8.596;2023-01-19T11:25:32;99279.00;;;1.31;100.00
55070;BME280;40967;52.070;8.596;2023-01-19T11:27:59;99288.72;;;1.37;100.00
55070;BME280;40967;52.070;8.596;2023-01-19T11:30:25;99289.28;;;1.39;100.00
55070;BME280;40967;52.070;8.596;2023-01-19T11:32:51;99281.75;;;1.36;100.00
55070;BME280;40967;52.070;8.596;2023-01-19T11:35:33;99296.34;;;1.45;100.00
55070;BME280;40967;52.070;8.596;2023-01-19T11:40:37;99289.28;;;1.39;100.00
55070;BME280;40967;52.070;8.596;2023-01-19T11:43:03;99292.28;;;1.43;100.00
55070;BME280;40967;52.070;8.596;2023-01-19T11:45:29;99284.59;;;1.46;100.00
55070;BME280;40967;52.070;8.596;2023-01-19T11:47:56;99289.25;;;1.51;100.00
55070;BME280;40967;52.070;8.596;2023-01-19T11:50:30;99297.81;;;1.53;100.00
55070;BME280;40967;52.070;8.596;2023-01-19T11:53:03;99301.38;;;1.58;100.00
55070;BME280;40967;52.070;8.596;2023-01-19T11:55:38;99294.41;;;1.57;100.00
55070;BME280;40967;52.070;8.596;2023-01-19T11:58:06;99294.25;;;1.64;100.00
55070;BME280;40967;52.070;8.596;2023-01-19T12:00:41;99309.34;;;1.70;100.00
55070;BME280;40967;52.070;8.596;2023-01-19T12:03:30;99309.94;;;1.72;100.00
55070;BME280;40967;52.070;8.596;2023-01-19T12:06:08;99296.69;;;1.65;100.00
55070;BME280;40967;52.070;8.596;2023-01-19T12:08:44;99306.69;;;1.70;100.00
55070;BME280;40967;52.070;8.596;2023-01-19T12:11:16;99312.44;;;1.78;100.00
55070;BME280;40967;52.070;8.596;2023-01-19T12:13:44;99310.00;;;1.77;100.00
55070;BME280;40967;52.070;8.596;2023-01-19T12:16:19;99313.09;;;1.85;100.00
55070;BME280;40967;52.070;8.596;2023-01-19T12:18:52;99313.09;;;1.85;100.00
55070;BME280;40967;52.070;8.596;2023-01-19T12:21:19;99309.69;;;1.90;100.00
55070;BME280;40967;52.070;8.596;2023-01-19T12:24:10;99318.59;;;1.95;100.00
55070;BME280;40967;52.070;8.596;2023-01-19T12:29:17;99326.53;;;1.90;100.00
55070;BME280;40967;52.070;8.596;2023-01-19T12:34:47;99328.16;;;1.91;100.00
55070;BME280;40967;52.070;8.596;2023-01-19T12:40:12;99335.13;;;1.92;100.00
55070;BME280;40967;52.070;8.596;2023-01-19T12:42:46;99332.22;;;1.94;100.00
55070;BME280;40967;52.070;8.596;2023-01-19T12:45:20;99338.84;;;1.91;100.00
55070;BME280;40967;52.070;8.596;2023-01-19T12:47:51;99344.84;;;1.98;100.00
55070;BME280;40967;52.070;8.596;2023-01-19T12:50:18;99342.75;;;2.00;100.00
55070;BME280;40967;52.070;8.596;2023-01-19T12:52:50;99351.59;;;2.01;100.00
55070;BME280;40967;52.070;8.596;2023-01-19T12:55:20;99350.84;;;2.05;100.00
55070;BME280;40967;52.070;8.596;2023-01-19T13:00:44;99345.59;;;2.10;100.00
55070;BME280;40967;52.070;8.596;2023-01-19T13:13:21;99373.72;;;2.29;100.00
55070;BME280;40967;52.070;8.596;2023-01-19T13:15:47;99374.28;;;2.31;100.00
55070;BME280;40967;52.070;8.596;2023-01-19T13:18:28;99369.50;;;2.33;100.00
55070;BME280;40967;52.070;8.596;2023-01-19T13:21:04;99371.63;;;2.31;100.00
55070;BME280;40967;52.070;8.596;2023-01-19T13:23:54;99373.91;;;2.40;100.00
55070;BME280;40967;52.070;8.596;2023-01-19T13:26:23;99368.13;;;2.48;100.00
55070;BME280;40967;52.070;8.596;2023-01-19T13:28:53;99373.13;;;2.61;100.00
55070;BME280;40967;52.070;8.596;2023-01-19T13:31:19;99364.94;;;2.67;100.00
55070;BME280;40967;52.070;8.596;2023-01-19T13:33:50;99369.94;;;2.80;100.00
55070;BME280;40967;52.070;8.596;2023-01-19T13:36:37;99378.91;;;2.91;100.00
55070;BME280;40967;52.070;8.596;2023-01-19T13:39:22;99374.25;;;3.03;100.00
55070;BME280;40967;52.070;8.596;2023-01-19T13:41:54;99374.56;;;3.06;100.00
55070;BME280;40967;52.070;8.596;2023-01-19T13:44:20;99386.44;;;3.10;100.00
55070;BME280;40967;52.070;8.596;2023-01-19T13:46:48;99391.03;;;3.15;100.00
55070;BME280;40967;52.070;8.596;2023-01-19T13:49:33;99384.31;;;3.12;100.00
55070;BME280;40967;52.070;8.596;2023-01-19T13:52:22;99397.88;;;3.06;100.00
55070;BME280;40967;52.070;8.596;2023-01-19T13:54:56;99401.13;;;3.08;100.00
55070;BME280;40967;52.070;8.596;2023-01-19T13:57:30;99407.22;;;3.03;100.00
55070;BME280;40967;52.070;8.596;2023-01-19T14:02:37;99414.63;;;2.96;100.00
55070;BME280;40967;52.070;8.596;2023-01-19T14:05:35;99429.41;;;2.99;100.00
55070;BME280;40967;52.070;8.596;2023-01-19T14:10:36;99413.34;;;2.82;100.00
55070;BME280;40967;52.070;8.596;2023-01-19T14:15:40;99421.72;;;2.86;100.00